LPPD/PDL METAR and TAF weather

Enter ICAO airport designator
Station Type Date Time Source
LPPD METAR 2020/03/28 08:00 UTC NOAA

LPPD 280800Z 29008KT 9999 FEW018 14/10 Q1013


Station Type Date Time Source
LPPD Decoded METAR 2020/03/28 08:00 UTC NOAA

Ponta Delgada / Nordela Acores , Portugal (LPPD) 37-44N 025-42W 72M
Mar 28, 2020 - 04:00 AM EDT / 2020.03.28 0800 UTC
Wind: from the WNW (290 degrees) at 9 MPH (8 KT):0
Visibility: greater than 7 mile(s):0
Sky conditions: mostly clear
Temperature: 57 F (14 C)
Dew Point: 50 F (10 C)
Relative Humidity: 76%
Pressure (altimeter): 29.91 in. Hg (1013 hPa)
ob: LPPD 280800Z 29008KT 9999 FEW018 14/10 Q1013
cycle: 8

Station Type Date Time Source
LPPD TAF 2020/03/28 06:18 UTC NOAA

TAF LPPD 280500Z 2806/2906 31010KT 9999 FEW018 SCT040 PROB30
TEMPO 2806/2820 8000 SHRA BKN015 FEW020TCU
BECMG 2808/2810 28015KT
TEMPO 2810/2906 29018G28KT

Example: see airport list